Time;durP1;ratioP1;P1;durP2;ratioP2;P2;SDS_P1;SDS_P2;PMS_P1;PMS_P2;Temp;Humidity;BMP_temperature;BMP_pressure;BME280_temperature;BME280_humidity;BME280_pressure;Samples;Min_cycle;Max_cycle;Signal;HPM_P1;HPM_P2
2022/01/23 00:00:43;;;;;;;11.68;5.38;;;6.50;99.90;;;;;;4999560;28;20041;-59
2022/01/23 00:03:16;;;;;;;10.07;5.30;;;6.50;99.90;;;;;;4991896;28;20077;-57
2022/01/23 00:05:44;;;;;;;9.35;4.95;;;6.50;99.90;;;;;;4993141;28;20041;-59
2022/01/23 00:08:12;;;;;;;11.25;4.63;;;6.50;99.90;;;;;;4976780;28;20472;-58
2022/01/23 00:10:39;;;;;;;11.80;5.65;;;6.50;99.90;;;;;;4994417;28;20048;-58
2022/01/23 00:18:20;;;;;;;16.80;5.72;;;6.50;99.90;;;;;;4996660;28;20045;-58
2022/01/23 00:20:46;;;;;;;13.93;4.88;;;6.40;99.90;;;;;;5006063;28;20049;-58
2022/01/23 00:23:29;;;;;;;10.40;4.80;;;6.40;99.90;;;;;;4998908;28;20117;-55
2022/01/23 00:31:25;;;;;;;16.95;6.95;;;6.40;99.90;;;;;;4993680;28;21092;-54
2022/01/23 00:33:54;;;;;;;10.85;4.95;;;6.40;99.90;;;;;;5011473;28;20427;-56
2022/01/23 00:36:24;;;;;;;14.63;6.00;;;6.40;99.90;;;;;;4996937;28;20125;-56
2022/01/23 00:38:50;;;;;;;12.40;5.70;;;6.40;99.90;;;;;;4999129;28;20488;-57
2022/01/23 00:41:15;;;;;;;20.15;5.97;;;6.50;99.90;;;;;;4998778;28;20048;-57
2022/01/23 00:43:43;;;;;;;11.98;5.35;;;6.40;99.90;;;;;;4993572;28;20052;-58
2022/01/23 00:51:21;;;;;;;14.38;5.57;;;6.40;99.90;;;;;;5003302;28;20143;-58
2022/01/23 00:53:47;;;;;;;13.02;5.05;;;6.40;99.90;;;;;;4996748;28;20129;-56
2022/01/23 00:56:13;;;;;;;13.07;5.63;;;6.40;99.90;;;;;;4996429;28;20476;-58
2022/01/23 00:58:39;;;;;;;15.20;6.32;;;6.40;99.90;;;;;;4996655;28;20092;-58
2022/01/23 01:01:04;;;;;;;21.13;7.38;;;6.50;99.90;;;;;;4978000;28;20547;-58
2022/01/23 01:03:30;;;;;;;15.13;7.18;;;6.40;99.90;;;;;;4979612;27;20069;-57
2022/01/23 01:05:56;;;;;;;15.95;6.35;;;6.40;99.90;;;;;;4995248;28;20041;-58
2022/01/23 01:08:22;;;;;;;20.45;6.82;;;6.50;99.90;;;;;;4998794;28;20559;-57
2022/01/23 01:11:09;;;;;;;14.52;6.82;;;6.40;99.90;;;;;;4990533;28;20034;-58
2022/01/23 01:14:27;;;;;;;12.07;5.18;;;6.40;99.90;;;;;;5011106;28;20068;-58
2022/01/23 01:30:23;;;;;;;;;;;6.50;99.90;;;;;;4995574;28;20429;-57
2022/01/23 01:35:25;;;;;;;18.63;7.93;;;6.40;99.90;;;;;;4976578;28;20053;-56
2022/01/23 01:37:52;;;;;;;17.25;7.72;;;6.40;99.90;;;;;;4968448;28;20072;-55
2022/01/23 01:40:19;;;;;;;19.13;8.82;;;6.60;99.90;;;;;;5006644;28;20037;-55
2022/01/23 01:42:45;;;;;;;14.70;7.75;;;6.40;99.90;;;;;;5000711;28;20049;-57
2022/01/23 01:45:12;;;;;;;24.05;7.05;;;6.40;99.90;;;;;;4989868;28;20044;-57
2022/01/23 01:47:37;;;;;;;16.52;6.65;;;6.30;99.90;;;;;;5009720;28;20503;-57
2022/01/23 01:50:05;;;;;;;9.45;5.82;;;6.30;99.90;;;;;;4991447;28;20042;-57
2022/01/23 01:52:33;;;;;;;12.98;4.95;;;6.30;99.90;;;;;;4997267;28;20494;-58
2022/01/23 01:55:03;;;;;;;11.52;5.22;;;6.30;99.90;;;;;;4996659;28;20450;-56
2022/01/23 01:57:35;;;;;;;12.07;5.32;;;6.30;99.90;;;;;;5001946;28;20102;-58
2022/01/23 02:02:53;;;;;;;17.10;5.85;;;6.30;99.90;;;;;;5000251;28;20053;-58
2022/01/23 02:10:48;;;;;;;;;;;6.30;99.90;;;;;;4992116;28;20045;-57
2022/01/23 02:13:18;;;;;;;9.52;3.92;;;6.20;99.90;;;;;;4989195;28;19924;-58
2022/01/23 02:18:43;;;;;;;10.88;4.75;;;6.20;99.90;;;;;;4981906;28;20056;-57
2022/01/23 02:57:03;;;;;;;14.07;5.20;;;6.10;99.90;;;;;;5002254;28;20073;-57
2022/01/23 02:59:31;;;;;;;12.73;5.93;;;6.10;99.90;;;;;;4993081;28;20091;-59
2022/01/23 03:04:27;;;;;;;15.73;6.28;;;6.10;99.90;;;;;;5002257;28;20181;-58
2022/01/23 03:14:58;;;;;;;15.10;5.93;;;6.10;99.90;;;;;;4992988;28;20037;-57
2022/01/23 03:28:34;;;;;;;10.35;5.63;;;6.10;99.90;;;;;;4999450;28;20049;-58
2022/01/23 03:33:30;;;;;;;19.30;7.47;;;6.10;99.90;;;;;;4996094;28;20041;-58
2022/01/23 03:35:56;;;;;;;9.38;4.55;;;6.10;99.90;;;;;;4997973;28;20094;-57
2022/01/23 03:38:21;;;;;;;10.77;5.65;;;6.20;99.90;;;;;;4992545;28;20045;-59
2022/01/23 03:40:47;;;;;;;9.88;6.13;;;6.10;99.90;;;;;;4982905;28;20084;-58
2022/01/23 03:43:15;;;;;;;9.70;5.30;;;6.20;99.90;;;;;;4993522;28;20053;-58
2022/01/23 03:50:42;;;;;;;9.50;5.97;;;6.10;99.90;;;;;;5006165;28;20049;-58
2022/01/23 03:53:08;;;;;;;11.93;5.45;;;6.10;99.90;;;;;;4999959;28;20045;-59
2022/01/23 03:55:34;;;;;;;13.50;6.10;;;6.10;99.90;;;;;;5012888;27;20405;-59
2022/01/23 03:58:00;;;;;;;13.85;6.53;;;6.10;99.90;;;;;;5014245;28;20045;-59
2022/01/23 04:00:26;;;;;;;9.57;5.85;;;6.10;99.90;;;;;;5000066;28;20196;-59
2022/01/23 04:02:52;;;;;;;16.38;6.63;;;6.10;99.90;;;;;;5011712;28;20617;-59
2022/01/23 04:05:17;;;;;;;15.40;6.13;;;6.10;99.90;;;;;;4995104;28;20433;-58
2022/01/23 04:07:44;;;;;;;13.75;6.00;;;6.10;99.90;;;;;;5000033;28;20091;-58
2022/01/23 04:10:13;;;;;;;10.07;4.60;;;6.10;99.90;;;;;;4997615;28;20112;-59
2022/01/23 04:12:52;;;;;;;11.85;5.07;;;6.00;99.90;;;;;;5001470;28;20053;-59
2022/01/23 05:01:28;;;;;;;7.38;3.03;;;6.00;99.90;;;;;;4981657;28;20415;-59
2022/01/23 05:04:13;;;;;;;5.55;2.80;;;6.10;99.90;;;;;;4997914;28;20499;-58
2022/01/23 05:06:45;;;;;;;6.28;3.65;;;6.10;99.90;;;;;;4992378;28;20042;-58
2022/01/23 05:09:14;;;;;;;10.48;4.55;;;6.10;99.90;;;;;;4993225;28;20114;-59
2022/01/23 05:11:49;;;;;;;6.18;3.70;;;6.10;99.90;;;;;;4993591;28;20034;-59
2022/01/23 05:14:20;;;;;;;6.80;3.50;;;6.00;99.90;;;;;;4996237;28;20045;-60
2022/01/23 05:16:46;;;;;;;4.95;2.75;;;6.00;99.90;;;;;;4996070;28;20050;-59
2022/01/23 05:19:12;;;;;;;8.18;3.80;;;6.00;99.90;;;;;;4996585;28;20124;-58
2022/01/23 05:24:27;;;;;;;6.07;2.97;;;6.00;99.90;;;;;;4992450;28;20042;-59
2022/01/23 05:27:03;;;;;;;8.77;3.05;;;6.00;99.90;;;;;;4989914;28;20065;-60
2022/01/23 05:29:29;;;;;;;7.00;2.83;;;6.00;99.90;;;;;;4989950;28;20487;-60
2022/01/23 05:31:54;;;;;;;4.97;1.98;;;6.00;99.90;;;;;;4991591;28;20038;-59
2022/01/23 05:34:22;;;;;;;6.88;2.70;;;6.00;99.90;;;;;;4996315;28;20502;-59
2022/01/23 05:36:48;;;;;;;7.28;3.05;;;6.00;99.90;;;;;;4989825;28;20072;-59
2022/01/23 05:39:18;;;;;;;6.32;3.17;;;6.00;99.90;;;;;;4998371;28;20078;-58
2022/01/23 05:41:43;;;;;;;5.07;2.60;;;6.00;99.90;;;;;;4994646;28;20322;-58
2022/01/23 05:44:09;;;;;;;7.45;2.80;;;6.00;99.90;;;;;;4999202;28;20446;-57
2022/01/23 05:46:35;;;;;;;5.05;2.88;;;6.00;99.90;;;;;;5023295;28;20044;-59
2022/01/23 05:49:01;;;;;;;6.65;3.15;;;6.00;99.90;;;;;;4997996;28;20361;-59
2022/01/23 05:51:26;;;;;;;8.55;3.20;;;5.90;99.90;;;;;;4995261;28;20098;-58
2022/01/23 05:53:52;;;;;;;7.60;2.95;;;5.90;99.90;;;;;;4992342;28;20697;-59
2022/01/23 05:56:18;;;;;;;5.78;3.25;;;5.90;99.90;;;;;;4990466;28;20050;-58
2022/01/23 05:58:44;;;;;;;7.15;2.83;;;5.90;99.90;;;;;;4986254;28;20038;-57
2022/01/23 06:01:10;;;;;;;4.63;2.60;;;5.90;99.90;;;;;;4988013;28;20446;-58
2022/01/23 06:03:36;;;;;;;6.40;3.38;;;5.90;99.90;;;;;;4988227;28;20046;-59
2022/01/23 06:06:01;;;;;;;6.22;3.17;;;5.90;99.90;;;;;;4983742;28;20087;-58
2022/01/23 06:08:27;;;;;;;6.50;2.50;;;5.90;99.90;;;;;;4967881;28;20515;-58
2022/01/23 06:10:55;;;;;;;6.50;2.95;;;5.90;99.90;;;;;;4981712;28;20496;-58
2022/01/23 06:13:23;;;;;;;10.50;4.95;;;5.90;99.90;;;;;;4991894;28;20049;-59
2022/01/23 06:15:49;;;;;;;11.10;4.93;;;5.90;99.90;;;;;;4989909;28;20149;-59
2022/01/23 06:18:15;;;;;;;7.53;3.83;;;5.90;99.90;;;;;;5003052;28;20046;-58
2022/01/23 06:20:41;;;;;;;6.53;3.95;;;5.90;99.90;;;;;;4989347;28;20034;-59
2022/01/23 06:23:07;;;;;;;7.50;4.38;;;5.90;99.90;;;;;;4980703;28;20300;-59
2022/01/23 06:25:34;;;;;;;9.63;4.35;;;5.90;99.90;;;;;;4987157;28;20778;-58
2022/01/23 06:28:04;;;;;;;7.65;4.47;;;5.90;99.90;;;;;;4990024;28;20049;-58
2022/01/23 06:30:29;;;;;;;7.57;4.55;;;5.90;99.90;;;;;;4990771;28;20498;-58
2022/01/23 06:32:55;;;;;;;6.68;4.07;;;5.90;99.90;;;;;;4985543;28;20079;-58
2022/01/23 06:35:21;;;;;;;9.38;4.90;;;5.90;99.90;;;;;;4986309;28;20415;-58
2022/01/23 06:37:47;;;;;;;11.30;5.15;;;6.00;99.90;;;;;;4986213;28;20042;-58
2022/01/23 06:40:12;;;;;;;6.93;3.95;;;6.00;99.90;;;;;;4971402;28;20046;-57
2022/01/23 06:42:38;;;;;;;8.38;4.57;;;5.90;99.90;;;;;;4992778;28;20204;-59
2022/01/23 06:45:04;;;;;;;10.50;4.90;;;6.00;99.90;;;;;;4989580;28;21180;-59
2022/01/23 06:47:30;;;;;;;7.38;4.57;;;6.00;99.90;;;;;;4991741;28;20046;-59
2022/01/23 06:49:56;;;;;;;10.50;4.63;;;5.90;99.90;;;;;;4993538;28;20049;-59
2022/01/23 06:52:22;;;;;;;7.10;4.45;;;6.00;99.90;;;;;;5000309;28;20053;-59
2022/01/23 06:54:48;;;;;;;8.43;5.13;;;6.00;99.90;;;;;;4984636;28;20042;-60
2022/01/23 06:57:14;;;;;;;7.63;4.80;;;6.00;99.90;;;;;;4992701;28;20189;-59
2022/01/23 06:59:40;;;;;;;8.20;5.57;;;5.90;99.90;;;;;;4963638;28;20034;-59
2022/01/23 07:02:05;;;;;;;11.30;4.35;;;5.90;99.90;;;;;;4995514;28;20057;-60
2022/01/23 07:04:31;;;;;;;6.22;4.53;;;5.90;99.90;;;;;;4985846;28;20489;-60
2022/01/23 07:06:58;;;;;;;9.98;5.55;;;5.90;99.90;;;;;;4985025;28;20132;-59
2022/01/23 07:09:23;;;;;;;11.60;5.25;;;5.90;99.90;;;;;;4999868;28;20045;-60
2022/01/23 07:11:49;;;;;;;7.32;4.95;;;5.90;99.90;;;;;;4985932;28;20042;-59
2022/01/23 07:14:15;;;;;;;6.63;4.25;;;5.90;99.90;;;;;;5003863;28;20507;-59
2022/01/23 07:16:41;;;;;;;11.23;4.88;;;5.90;99.90;;;;;;4987802;28;20084;-58
2022/01/23 07:19:06;;;;;;;6.32;4.28;;;5.90;99.90;;;;;;4986896;28;20038;-60
2022/01/23 07:21:32;;;;;;;8.25;4.90;;;5.90;99.90;;;;;;4986715;28;20038;-58
2022/01/23 07:23:58;;;;;;;7.25;4.20;;;5.90;99.90;;;;;;4987063;28;21096;-60
2022/01/23 07:26:26;;;;;;;6.25;3.30;;;5.80;99.90;;;;;;4994124;28;20085;-60
2022/01/23 07:28:54;;;;;;;7.03;4.10;;;5.90;99.90;;;;;;4988839;28;20038;-59
2022/01/23 07:31:43;;;;;;;6.18;4.18;;;5.90;99.90;;;;;;4987551;28;20549;-58
2022/01/23 07:34:08;;;;;;;6.82;5.22;;;5.90;99.90;;;;;;4987691;28;20181;-59
2022/01/23 07:36:35;;;;;;;7.97;4.93;;;5.90;99.90;;;;;;4992491;28;20560;-59
2022/01/23 07:39:01;;;;;;;6.30;4.75;;;5.90;99.90;;;;;;4998761;28;20172;-59
2022/01/23 07:41:27;;;;;;;8.13;4.85;;;5.90;99.90;;;;;;4990013;28;20049;-59
2022/01/23 07:43:53;;;;;;;7.28;5.00;;;5.90;99.90;;;;;;4984802;28;20046;-59
2022/01/23 07:46:19;;;;;;;7.80;3.53;;;5.90;99.90;;;;;;4986152;28;20029;-58
2022/01/23 07:48:45;;;;;;;10.13;5.07;;;5.90;99.90;;;;;;4991560;28;20046;-60
2022/01/23 07:51:11;;;;;;;6.32;4.20;;;5.90;99.90;;;;;;4989368;28;20113;-60
2022/01/23 07:53:37;;;;;;;5.75;3.38;;;5.90;99.90;;;;;;4991964;28;20038;-59
2022/01/23 07:56:03;;;;;;;7.63;4.60;;;5.90;99.90;;;;;;4981498;28;20046;-59
2022/01/23 07:58:29;;;;;;;6.38;3.95;;;5.90;99.90;;;;;;4984693;28;20042;-59
2022/01/23 08:00:54;;;;;;;8.50;5.13;;;5.90;99.90;;;;;;4999259;28;20046;-59
2022/01/23 08:03:20;;;;;;;9.40;4.82;;;5.80;99.90;;;;;;4992059;28;20046;-60
2022/01/23 08:05:46;;;;;;;7.68;4.45;;;5.90;99.90;;;;;;4994547;28;20084;-60
2022/01/23 08:08:12;;;;;;;7.78;4.68;;;5.90;99.90;;;;;;4989010;28;20086;-59
2022/01/23 08:10:39;;;;;;;7.72;4.32;;;5.90;99.90;;;;;;4982098;28;20447;-59
2022/01/23 08:13:05;;;;;;;6.93;4.53;;;5.90;99.90;;;;;;4973755;28;20038;-60
2022/01/23 08:15:33;;;;;;;5.75;3.65;;;6.00;99.90;;;;;;4966507;28;20038;-60
2022/01/23 08:18:06;;;;;;;8.23;3.60;;;6.00;99.90;;;;;;4985246;28;20135;-59
2022/01/23 08:20:34;;;;;;;6.93;3.75;;;6.00;99.90;;;;;;4989992;28;20133;-59
2022/01/23 08:23:04;;;;;;;7.15;3.80;;;6.00;99.90;;;;;;4988366;28;20044;-59
2022/01/23 08:25:31;;;;;;;5.57;3.38;;;6.00;99.90;;;;;;4993364;28;20072;-58
2022/01/23 08:27:58;;;;;;;7.30;3.53;;;6.00;99.90;;;;;;4983783;28;20054;-58
2022/01/23 08:30:24;;;;;;;7.53;3.90;;;6.10;99.90;;;;;;4984739;28;20049;-58
2022/01/23 08:32:50;;;;;;;7.75;4.10;;;6.10;99.90;;;;;;4986348;28;20188;-59
2022/01/23 08:35:17;;;;;;;7.20;3.83;;;6.00;99.90;;;;;;4995799;28;20034;-58
2022/01/23 08:37:43;;;;;;;6.53;3.97;;;6.20;99.90;;;;;;4998421;28;20491;-59
2022/01/23 08:40:19;;;;;;;6.35;4.05;;;6.10;99.90;;;;;;4992275;28;20129;-60
2022/01/23 08:42:45;;;;;;;5.22;3.60;;;6.10;99.90;;;;;;4985744;28;20144;-60
2022/01/23 08:45:11;;;;;;;6.53;4.05;;;6.20;99.90;;;;;;4986872;28;20113;-59
2022/01/23 08:47:37;;;;;;;6.95;3.85;;;6.20;99.90;;;;;;4995416;28;20052;-58
2022/01/23 08:50:03;;;;;;;6.57;4.25;;;6.20;99.90;;;;;;4966694;28;20061;-57
2022/01/23 08:52:29;;;;;;;7.00;3.63;;;6.20;99.90;;;;;;4973588;28;20046;-59
2022/01/23 08:54:59;;;;;;;7.30;3.08;;;6.20;99.90;;;;;;4990074;28;20035;-59
2022/01/23 08:57:25;;;;;;;5.47;3.75;;;6.20;99.90;;;;;;4983189;28;20046;-59
2022/01/23 08:59:51;;;;;;;4.75;3.17;;;6.20;99.90;;;;;;4983999;28;20178;-58
2022/01/23 09:02:18;;;;;;;6.68;4.03;;;6.20;99.90;;;;;;4988135;28;20046;-59
2022/01/23 09:04:45;;;;;;;5.85;3.40;;;6.30;99.90;;;;;;4982028;28;20081;-59
2022/01/23 09:07:11;;;;;;;6.63;3.17;;;6.30;99.90;;;;;;4987138;28;20046;-58
2022/01/23 09:09:39;;;;;;;5.13;3.50;;;6.30;99.90;;;;;;4989145;28;20454;-59
2022/01/23 09:12:44;;;;;;;6.45;3.33;;;6.30;99.90;;;;;;4984778;28;20070;-59
2022/01/23 09:14:56;;;;;;;4.95;3.47;;;6.30;99.90;;;;;;4984477;28;20081;-58
2022/01/23 09:17:22;;;;;;;7.20;3.10;;;6.40;99.90;;;;;;4992205;28;20128;-60
2022/01/23 09:19:47;;;;;;;4.70;3.13;;;6.40;99.90;;;;;;4994218;28;20049;-59
2022/01/23 09:22:15;;;;;;;5.95;3.15;;;6.40;99.90;;;;;;4988999;28;20045;-58
2022/01/23 09:24:41;;;;;;;4.63;3.03;;;6.40;99.90;;;;;;4991624;28;20050;-59
2022/01/23 09:27:12;;;;;;;4.70;3.20;;;6.40;99.90;;;;;;4976600;28;20042;-59
2022/01/23 09:29:41;;;;;;;4.93;2.90;;;6.50;99.90;;;;;;4993624;28;20042;-59
2022/01/23 09:32:11;;;;;;;5.55;3.22;;;6.50;99.90;;;;;;4981388;28;20454;-58
2022/01/23 09:34:37;;;;;;;4.75;3.10;;;6.50;99.90;;;;;;4991859;28;20102;-58
2022/01/23 09:37:05;;;;;;;5.47;2.97;;;6.50;99.90;;;;;;4981682;28;20649;-60
2022/01/23 09:39:32;;;;;;;6.22;3.08;;;6.60;99.90;;;;;;4990336;28;20072;-59
2022/01/23 09:42:12;;;;;;;3.47;2.38;;;6.60;99.90;;;;;;4989726;28;20045;-59
2022/01/23 09:44:47;;;;;;;7.82;2.90;;;6.50;99.90;;;;;;4986371;28;20622;-58
2022/01/23 09:47:14;;;;;;;5.85;2.92;;;6.60;99.90;;;;;;4990422;28;20379;-59
2022/01/23 09:49:42;;;;;;;5.03;3.10;;;6.60;99.90;;;;;;4971246;28;20034;-60
2022/01/23 09:52:10;;;;;;;5.90;3.15;;;6.70;99.90;;;;;;4989157;28;20042;-59
2022/01/23 09:54:39;;;;;;;6.18;3.25;;;6.70;99.90;;;;;;4993412;28;20033;-59
2022/01/23 09:57:07;;;;;;;6.70;2.90;;;6.70;99.90;;;;;;4992814;28;20063;-59
2022/01/23 09:59:33;;;;;;;5.82;3.20;;;6.80;99.90;;;;;;4987795;28;20056;-59
2022/01/23 10:02:01;;;;;;;7.93;3.58;;;6.80;99.90;;;;;;4988119;28;20044;-59
2022/01/23 10:04:27;;;;;;;6.97;3.83;;;6.80;99.90;;;;;;4987715;28;20034;-59
2022/01/23 10:06:53;;;;;;;6.50;4.28;;;6.80;99.90;;;;;;4999598;28;20044;-59
2022/01/23 10:09:25;;;;;;;6.60;3.20;;;6.80;99.90;;;;;;4992202;28;20081;-58
2022/01/23 10:11:51;;;;;;;5.38;3.05;;;6.90;99.90;;;;;;4987683;28;20034;-58
2022/01/23 10:14:18;;;;;;;5.22;3.17;;;6.90;99.90;;;;;;4983390;28;20236;-60
2022/01/23 10:16:46;;;;;;;12.48;7.88;;;6.90;99.90;;;;;;4986026;28;20161;-59
2022/01/23 10:19:13;;;;;;;6.63;4.72;;;6.90;99.90;;;;;;4989421;28;20045;-58
2022/01/23 10:21:39;;;;;;;7.10;3.92;;;6.90;99.90;;;;;;4992131;28;20128;-60
2022/01/23 10:24:09;;;;;;;6.53;3.70;;;6.90;99.90;;;;;;4984411;28;21435;-60
2022/01/23 10:26:54;;;;;;;8.35;4.07;;;6.90;99.90;;;;;;4987483;28;20069;-60
2022/01/23 10:29:26;;;;;;;9.07;4.63;;;6.90;99.90;;;;;;4995837;28;20045;-60
2022/01/23 10:32:20;;;;;;;8.65;4.25;;;6.90;99.90;;;;;;4984366;28;20042;-60
2022/01/23 10:34:57;;;;;;;8.53;4.60;;;6.90;99.90;;;;;;4987217;28;20490;-59
2022/01/23 10:37:35;;;;;;;10.65;5.32;;;6.90;99.90;;;;;;4988105;28;20043;-59
2022/01/23 10:40:21;;;;;;;8.63;5.32;;;7.00;99.90;;;;;;4990089;22;20203;-66
2022/01/23 10:48:26;;;;;;;12.05;4.75;;;7.00;99.90;;;;;;4970486;28;20180;-66
2022/01/23 10:51:26;;;;;;;11.63;4.78;;;7.00;99.90;;;;;;4979167;28;20043;-67
2022/01/23 10:54:09;;;;;;;8.52;4.53;;;7.10;99.90;;;;;;4967881;28;20053;-67
2022/01/23 10:56:53;;;;;;;8.63;5.13;;;7.00;99.90;;;;;;4976380;28;20043;-66
2022/01/23 10:59:19;;;;;;;7.25;4.95;;;7.00;99.90;;;;;;4991682;28;20038;-66
2022/01/23 11:02:09;;;;;;;11.77;5.20;;;7.10;99.90;;;;;;4977762;28;20046;-66
2022/01/23 11:04:56;;;;;;;10.40;5.30;;;7.10;99.90;;;;;;4966533;28;20100;-65
2022/01/23 11:07:23;;;;;;;9.10;4.45;;;7.10;99.90;;;;;;4975244;28;20063;-66
2022/01/23 11:10:14;;;;;;;13.25;5.88;;;7.10;99.90;;;;;;4970166;28;20050;-67
2022/01/23 11:18:13;;;;;;;12.82;5.65;;;7.10;99.90;;;;;;4970738;28;20046;-66
2022/01/23 11:20:39;;;;;;;9.32;4.68;;;7.10;99.90;;;;;;4986043;28;20050;-66
2022/01/23 11:23:23;;;;;;;6.90;4.82;;;7.10;99.90;;;;;;4971241;28;20042;-67
2022/01/23 11:25:52;;;;;;;10.15;5.28;;;7.10;99.90;;;;;;4968849;28;20050;-67
2022/01/23 11:28:19;;;;;;;11.85;4.90;;;7.10;99.90;;;;;;4971562;28;20038;-66
2022/01/23 11:30:48;;;;;;;10.77;5.90;;;7.20;99.90;;;;;;4973907;28;20397;-66
2022/01/23 11:33:17;;;;;;;10.05;6.35;;;7.20;99.90;;;;;;4969129;28;21264;-66
2022/01/23 11:35:45;;;;;;;11.75;6.10;;;7.20;99.90;;;;;;4962809;28;20050;-66
2022/01/23 11:38:14;;;;;;;10.60;5.75;;;7.20;99.90;;;;;;4967315;28;20049;-66
2022/01/23 11:54:49;;;;;;;9.90;5.50;;;7.30;99.90;;;;;;4971358;28;20724;-65
2022/01/23 11:57:36;;;;;;;;;;;7.30;99.90;;;;;;4954118;28;20423;-66
2022/01/23 12:00:18;;;;;;;13.18;6.25;;;7.20;99.90;;;;;;4976770;28;19948;-64
2022/01/23 12:03:05;;;;;;;11.13;5.85;;;7.20;99.90;;;;;;4991848;28;20042;-67
2022/01/23 12:05:31;;;;;;;10.95;5.50;;;7.20;99.90;;;;;;4983180;28;20445;-65
2022/01/23 12:08:17;;;;;;;12.68;5.78;;;7.20;99.90;;;;;;4957181;28;20037;-65
2022/01/23 12:11:17;;;;;;;10.88;6.03;;;7.30;99.90;;;;;;4986100;28;20496;-68
2022/01/23 12:16:32;;;;;;;14.85;6.07;;;7.30;99.90;;;;;;4974147;28;20111;-64
2022/01/23 12:19:22;;;;;;;9.82;5.18;;;7.30;99.90;;;;;;4961559;28;20445;-66
2022/01/23 12:21:50;;;;;;;10.13;5.43;;;7.40;99.90;;;;;;4978885;28;20129;-67
2022/01/23 12:24:17;;;;;;;9.65;5.32;;;7.40;99.90;;;;;;4963800;28;20041;-66
2022/01/23 12:26:44;;;;;;;12.88;5.05;;;7.40;99.90;;;;;;4959992;28;20042;-64
2022/01/23 12:29:11;;;;;;;9.60;5.18;;;7.40;99.90;;;;;;4971596;28;20530;-64
2022/01/23 12:31:38;;;;;;;10.60;5.97;;;7.40;99.90;;;;;;4967941;28;20046;-64
2022/01/23 12:34:04;;;;;;;14.68;4.93;;;7.40;99.90;;;;;;4976199;28;20034;-64
2022/01/23 12:36:37;;;;;;;7.80;4.63;;;7.40;99.90;;;;;;4973176;28;20088;-66
2022/01/23 12:39:09;;;;;;;9.13;4.93;;;7.50;99.90;;;;;;4982594;28;20425;-64
2022/01/23 12:41:39;;;;;;;8.48;4.68;;;7.50;99.90;;;;;;4966324;28;20399;-64
2022/01/23 12:44:29;;;;;;;6.43;4.82;;;7.40;99.90;;;;;;4976752;28;20050;-64
2022/01/23 12:47:07;;;;;;;8.48;5.00;;;7.40;99.90;;;;;;4979032;28;20049;-66
2022/01/23 12:49:35;;;;;;;7.85;4.32;;;7.40;99.90;;;;;;4966606;28;20233;-63
2022/01/23 12:52:07;;;;;;;9.13;4.85;;;7.40;99.90;;;;;;4972055;28;20064;-64
2022/01/23 12:54:51;;;;;;;10.20;4.25;;;7.40;99.90;;;;;;4979602;28;20034;-67
2022/01/23 12:57:19;;;;;;;9.57;5.05;;;7.50;99.90;;;;;;4974231;28;20226;-65
2022/01/23 12:59:58;;;;;;;11.35;4.70;;;7.50;99.90;;;;;;4986353;28;20117;-65
2022/01/23 13:02:28;;;;;;;11.13;5.10;;;7.50;99.90;;;;;;4978029;28;20045;-65
2022/01/23 13:04:55;;;;;;;7.60;4.82;;;7.40;99.90;;;;;;4982439;28;20687;-65
2022/01/23 13:10:32;;;;;;;9.10;4.47;;;7.40;99.90;;;;;;4970854;28;20046;-66
2022/01/23 13:34:27;;;;;;;6.20;3.50;;;7.50;99.90;;;;;;4980773;28;20521;-66
2022/01/23 13:36:55;;;;;;;5.25;3.80;;;7.50;99.90;;;;;;4984337;28;20034;-63
2022/01/23 13:39:23;;;;;;;5.30;3.90;;;7.50;99.90;;;;;;4979287;28;20038;-66
2022/01/23 13:42:35;;;;;;;7.28;3.55;;;7.50;99.90;;;;;;4991898;28;20127;-66
2022/01/23 13:53:36;;;;;;;8.90;4.30;;;7.40;99.90;;;;;;4985737;28;20038;-65
2022/01/23 13:59:28;;;;;;;7.82;4.63;;;7.40;99.90;;;;;;4985691;28;20919;-67
2022/01/23 14:04:27;;;;;;;8.60;5.50;;;7.40;99.90;;;;;;4963631;28;20224;-66
2022/01/23 14:06:54;;;;;;;8.95;5.78;;;7.40;99.90;;;;;;4968563;28;21699;-66
2022/01/23 14:09:21;;;;;;;8.93;5.70;;;7.40;99.90;;;;;;4971429;28;20559;-66
2022/01/23 14:11:48;;;;;;;11.20;6.07;;;7.40;99.90;;;;;;4991613;28;20220;-66
2022/01/23 14:14:21;;;;;;;11.50;5.45;;;7.40;99.90;;;;;;4976725;28;20545;-66
2022/01/23 14:16:50;;;;;;;9.88;6.25;;;7.40;99.90;;;;;;4974354;28;20181;-65
2022/01/23 14:19:28;;;;;;;10.13;5.70;;;7.40;99.90;;;;;;4994139;28;20109;-64
2022/01/23 14:22:00;;;;;;;9.05;6.10;;;7.40;99.90;;;;;;4980965;28;20034;-63
2022/01/23 14:24:30;;;;;;;10.93;6.00;;;7.40;99.90;;;;;;4982752;28;20078;-64
2022/01/23 14:27:02;;;;;;;9.70;5.25;;;7.40;99.90;;;;;;4971419;28;20065;-66
2022/01/23 14:29:30;;;;;;;8.52;5.72;;;7.40;99.90;;;;;;4976797;28;20522;-68
2022/01/23 14:32:23;;;;;;;9.80;6.30;;;7.40;99.90;;;;;;4984850;28;20045;-67
2022/01/23 14:34:49;;;;;;;7.03;4.70;;;7.40;99.90;;;;;;4961463;28;20355;-66
2022/01/23 14:37:24;;;;;;;10.07;5.50;;;7.40;99.90;;;;;;4982288;28;20042;-65
2022/01/23 14:39:50;;;;;;;8.00;4.40;;;7.40;99.90;;;;;;4981687;28;20041;-65
2022/01/23 14:42:18;;;;;;;9.00;4.88;;;7.40;99.90;;;;;;5001263;28;20488;-66
2022/01/23 14:44:45;;;;;;;7.82;4.63;;;7.30;99.90;;;;;;4965137;28;20046;-67
2022/01/23 14:47:11;;;;;;;6.35;3.95;;;7.30;99.90;;;;;;4999194;28;20042;-66
2022/01/23 14:49:41;;;;;;;10.35;4.57;;;7.30;99.90;;;;;;5024787;28;20042;-66
2022/01/23 14:52:13;;;;;;;7.40;4.35;;;7.30;99.90;;;;;;4979860;28;20483;-66
2022/01/23 14:54:40;;;;;;;6.78;4.43;;;7.30;99.90;;;;;;5001529;28;20066;-66
2022/01/23 14:57:11;;;;;;;8.77;4.60;;;7.30;99.90;;;;;;4978828;28;20064;-63
2022/01/23 14:59:37;;;;;;;14.55;5.47;;;7.30;99.90;;;;;;4965718;28;20466;-66
2022/01/23 15:02:04;;;;;;;6.38;4.53;;;7.30;99.90;;;;;;4955232;28;20531;-66
2022/01/23 15:04:45;;;;;;;9.85;4.55;;;7.30;99.90;;;;;;4981919;28;20038;-67
2022/01/23 15:07:15;;;;;;;9.20;5.03;;;7.30;99.90;;;;;;4973606;28;20050;-64
2022/01/23 15:09:42;;;;;;;6.18;4.40;;;7.20;99.90;;;;;;4984255;28;20491;-66
2022/01/23 15:12:08;;;;;;;7.05;4.63;;;7.20;99.90;;;;;;4976306;28;20060;-66
2022/01/23 15:14:34;;;;;;;7.65;3.95;;;7.20;99.90;;;;;;4983247;28;20458;-66
2022/01/23 15:17:00;;;;;;;9.35;4.10;;;7.20;99.90;;;;;;4990681;28;20121;-66
2022/01/23 15:19:25;;;;;;;8.15;4.15;;;7.20;99.90;;;;;;4965494;28;20073;-65
2022/01/23 15:21:51;;;;;;;7.40;4.55;;;7.20;99.90;;;;;;4982261;28;20063;-67
2022/01/23 15:24:17;;;;;;;7.15;4.28;;;7.20;99.90;;;;;;4983168;28;20038;-67
2022/01/23 15:26:43;;;;;;;9.00;4.70;;;7.20;99.90;;;;;;4978335;28;20511;-64
2022/01/23 15:29:09;;;;;;;6.47;4.10;;;7.10;99.90;;;;;;4977950;28;20042;-65
2022/01/23 15:31:36;;;;;;;7.55;4.57;;;7.10;99.90;;;;;;4964062;28;20535;-63
2022/01/23 15:34:02;;;;;;;8.80;4.47;;;7.10;99.90;;;;;;4999010;28;20035;-63
2022/01/23 15:36:28;;;;;;;6.93;3.88;;;7.00;99.90;;;;;;5007874;28;20125;-63
2022/01/23 15:38:54;;;;;;;5.82;3.67;;;7.00;99.90;;;;;;5007031;28;20054;-65
2022/01/23 15:41:19;;;;;;;8.88;4.43;;;7.00;99.90;;;;;;4976713;28;20046;-64
2022/01/23 15:43:45;;;;;;;7.47;4.35;;;7.00;99.90;;;;;;4983754;28;20119;-63
2022/01/23 15:46:12;;;;;;;6.53;3.80;;;7.00;99.90;;;;;;4980358;28;20044;-63
2022/01/23 15:48:38;;;;;;;7.43;3.90;;;7.10;99.90;;;;;;4976744;28;20049;-64
2022/01/23 15:51:04;;;;;;;7.78;3.78;;;7.00;99.90;;;;;;5005411;28;20041;-63
2022/01/23 15:53:30;;;;;;;5.97;4.22;;;7.00;99.90;;;;;;4978546;28;20034;-63
2022/01/23 15:55:57;;;;;;;7.05;3.92;;;7.00;99.90;;;;;;4993254;28;20049;-63
2022/01/23 15:58:24;;;;;;;7.28;4.57;;;6.90;99.90;;;;;;4980716;28;20057;-64
2022/01/23 16:00:49;;;;;;;7.25;4.00;;;7.00;99.90;;;;;;4983931;28;20381;-63
2022/01/23 16:03:15;;;;;;;6.45;3.90;;;7.00;99.90;;;;;;5010808;28;20115;-66
2022/01/23 16:05:41;;;;;;;7.53;4.63;;;6.90;99.90;;;;;;4978884;28;20049;-66
2022/01/23 16:08:07;;;;;;;8.75;5.18;;;6.90;99.90;;;;;;4984010;28;20287;-66
2022/01/23 16:10:32;;;;;;;6.00;4.35;;;6.90;99.90;;;;;;4978184;28;20057;-66
2022/01/23 16:12:58;;;;;;;9.35;5.15;;;6.90;99.90;;;;;;4986503;28;20408;-65
2022/01/23 16:15:24;;;;;;;7.55;4.32;;;6.90;99.90;;;;;;5020114;28;20029;-65
2022/01/23 16:17:50;;;;;;;6.75;4.55;;;6.90;99.90;;;;;;4976224;28;20164;-65
2022/01/23 16:20:17;;;;;;;9.45;5.20;;;6.90;99.90;;;;;;4970553;28;20046;-65
2022/01/23 16:22:44;;;;;;;7.25;5.13;;;6.90;99.90;;;;;;4983893;28;20052;-65
2022/01/23 16:25:11;;;;;;;9.68;5.35;;;6.90;99.90;;;;;;4985106;28;20046;-64
2022/01/23 16:27:38;;;;;;;7.72;5.18;;;6.90;99.90;;;;;;4984702;28;20560;-64
2022/01/23 16:30:07;;;;;;;6.60;4.68;;;6.90;99.90;;;;;;4971985;28;20068;-65
2022/01/23 16:32:32;;;;;;;8.55;5.03;;;6.90;99.90;;;;;;4990034;28;20077;-65
2022/01/23 16:34:58;;;;;;;9.25;5.68;;;6.90;99.90;;;;;;4975683;28;20126;-64
2022/01/23 16:37:24;;;;;;;8.60;5.78;;;6.80;99.90;;;;;;4968616;28;20054;-64
2022/01/23 16:39:50;;;;;;;8.73;5.43;;;6.90;99.90;;;;;;5015947;23;20053;-82
2022/01/23 16:42:15;;;;;;;9.63;5.32;;;7.10;99.90;;;;;;5053682;28;20041;-85
2022/01/23 16:44:41;;;;;;;9.93;5.25;;;6.90;99.90;;;;;;5016944;28;20082;-84
2022/01/23 16:47:09;;;;;;;9.85;6.70;;;7.50;99.90;;;;;;5038144;28;20046;-84
2022/01/23 16:49:34;;;;;;;8.13;5.35;;;6.90;99.90;;;;;;5046641;28;20077;-85